Terminal Aerodrome Forecast
Issued by NWS Newport/Morehead City, NC

Home | Current Version | Previous Version | Graphics & Text | Print | Product List | Glossary On
Versions: 1 2 3 4 5 6 7 8 9 10 11 12 13
000
FTUS42 KMHX 252111 AAA
TAFEWN
TAF AMD
KEWN 252111Z 2521/2618 12005KT P6SM VCSH SCT040 OVC060
     FM252300 15007KT 6SM -RA SCT007 OVC025
     FM260100 19005KT 4SM -RA BR BKN007 OVC020
     FM260500 VRB03KT 3SM BR VCSH OVC004
     FM261600 36006KT P6SM VCSH OVC015=

USA.gov is the U.S. government's official web portal to all federal, state and local government web resources and services.